sensor_id;sensor_type;location;lat;lon;timestamp;pressure;altitude;pressure_sealevel;temperature;humidity
26531;BME280;14201;43.188;24.160;2023-09-19T00:00:00;99905.94;;;16.64;71.79
26531;BME280;14201;43.188;24.160;2023-09-19T00:02:26;99905.81;;;16.59;71.89
26531;BME280;14201;43.188;24.160;2023-09-19T00:04:52;99903.28;;;16.62;71.54
26531;BME280;14201;43.188;24.160;2023-09-19T00:07:18;99907.31;;;16.46;69.88
26531;BME280;14201;43.188;24.160;2023-09-19T00:09:44;99907.00;;;16.34;66.63
26531;BME280;14201;43.188;24.160;2023-09-19T00:12:09;99902.53;;;16.30;67.51
26531;BME280;14201;43.188;24.160;2023-09-19T00:14:35;99900.53;;;16.20;68.69
26531;BME280;14201;43.188;24.160;2023-09-19T00:17:03;99895.09;;;16.12;69.12
26531;BME280;14201;43.188;24.160;2023-09-19T00:19:36;99902.09;;;16.11;69.90
26531;BME280;14201;43.188;24.160;2023-09-19T00:22:02;99896.81;;;16.10;70.56
26531;BME280;14201;43.188;24.160;2023-09-19T00:24:28;99896.75;;;16.08;71.28
26531;BME280;14201;43.188;24.160;2023-09-19T00:26:53;99896.72;;;16.05;71.92
26531;BME280;14201;43.188;24.160;2023-09-19T00:29:20;99894.09;;;16.05;71.45
26531;BME280;14201;43.188;24.160;2023-09-19T00:31:46;99892.19;;;16.01;72.07
26531;BME280;14201;43.188;24.160;2023-09-19T00:34:11;99883.41;;;15.99;72.63
26531;BME280;14201;43.188;24.160;2023-09-19T00:36:37;99890.16;;;15.89;72.90
26531;BME280;14201;43.188;24.160;2023-09-19T00:39:05;99883.97;;;15.86;73.21
26531;BME280;14201;43.188;24.160;2023-09-19T00:41:31;99889.97;;;15.82;73.54
26531;BME280;14201;43.188;24.160;2023-09-19T00:43:57;99884.75;;;15.83;74.00
26531;BME280;14201;43.188;24.160;2023-09-19T00:46:22;99890.75;;;15.78;74.78
26531;BME280;14201;43.188;24.160;2023-09-19T00:48:47;99873.19;;;15.75;75.20
26531;BME280;14201;43.188;24.160;2023-09-19T00:51:14;99879.41;;;15.79;74.76
26531;BME280;14201;43.188;24.160;2023-09-19T00:53:44;99875.91;;;15.80;75.03
26531;BME280;14201;43.188;24.160;2023-09-19T00:56:11;99886.50;;;15.83;74.33
26531;BME280;14201;43.188;24.160;2023-09-19T00:58:37;99889.22;;;15.86;74.51
26531;BME280;14201;43.188;24.160;2023-09-19T01:01:03;99893.72;;;15.90;74.59
26531;BME280;14201;43.188;24.160;2023-09-19T01:03:32;99885.03;;;15.94;75.88
26531;BME280;14201;43.188;24.160;2023-09-19T01:05:59;99884.91;;;15.89;74.42
26531;BME280;14201;43.188;24.160;2023-09-19T01:08:26;99886.19;;;15.72;75.11
26531;BME280;14201;43.188;24.160;2023-09-19T01:11:06;99890.38;;;15.64;75.99
26531;BME280;14201;43.188;24.160;2023-09-19T01:21:21;99888.41;;;15.55;75.30
26531;BME280;14201;43.188;24.160;2023-09-19T01:28:43;99887.91;;;15.36;71.38
26531;BME280;14201;43.188;24.160;2023-09-19T01:31:12;99883.25;;;15.26;72.76
26531;BME280;14201;43.188;24.160;2023-09-19T01:36:39;99877.91;;;15.23;74.11
26531;BME280;14201;43.188;24.160;2023-09-19T01:39:05;99880.44;;;15.19;74.73
26531;BME280;14201;43.188;24.160;2023-09-19T01:41:51;99880.50;;;15.22;75.21
26531;BME280;14201;43.188;24.160;2023-09-19T01:44:24;99887.53;;;15.23;74.38
26531;BME280;14201;43.188;24.160;2023-09-19T01:46:50;99888.34;;;15.20;73.01
26531;BME280;14201;43.188;24.160;2023-09-19T01:52:09;99885.94;;;15.28;76.09
26531;BME280;14201;43.188;24.160;2023-09-19T01:54:41;99879.88;;;15.30;76.28
26531;BME280;14201;43.188;24.160;2023-09-19T01:57:16;99885.94;;;15.29;73.78
26531;BME280;14201;43.188;24.160;2023-09-19T01:59:47;99882.41;;;15.27;74.95
26531;BME280;14201;43.188;24.160;2023-09-19T02:02:13;99878.72;;;15.21;72.88
26531;BME280;14201;43.188;24.160;2023-09-19T02:04:40;99881.25;;;15.16;73.16
26531;BME280;14201;43.188;24.160;2023-09-19T02:07:05;99890.72;;;15.11;72.61
26531;BME280;14201;43.188;24.160;2023-09-19T02:09:31;99880.59;;;14.93;72.85
26531;BME280;14201;43.188;24.160;2023-09-19T02:11:56;99882.84;;;14.81;74.56
26531;BME280;14201;43.188;24.160;2023-09-19T02:14:21;99889.50;;;14.69;76.11
26531;BME280;14201;43.188;24.160;2023-09-19T02:16:47;99884.03;;;14.62;76.81
26531;BME280;14201;43.188;24.160;2023-09-19T02:19:15;99881.50;;;14.65;77.47
26531;BME280;14201;43.188;24.160;2023-09-19T02:21:40;99883.31;;;14.66;78.35
26531;BME280;14201;43.188;24.160;2023-09-19T02:24:06;99875.28;;;14.61;78.76
26531;BME280;14201;43.188;24.160;2023-09-19T02:26:33;99873.66;;;14.65;77.50
26531;BME280;14201;43.188;24.160;2023-09-19T02:29:02;99873.34;;;14.55;75.39
26531;BME280;14201;43.188;24.160;2023-09-19T02:31:30;99875.94;;;14.54;74.70
26531;BME280;14201;43.188;24.160;2023-09-19T02:33:55;99870.69;;;14.54;75.06
26531;BME280;14201;43.188;24.160;2023-09-19T02:36:21;99882.22;;;14.59;75.59
26531;BME280;14201;43.188;24.160;2023-09-19T02:38:48;99873.41;;;14.57;77.14
26531;BME280;14201;43.188;24.160;2023-09-19T02:41:14;99868.78;;;14.50;76.27
26531;BME280;14201;43.188;24.160;2023-09-19T02:43:39;99872.53;;;14.56;74.77
26531;BME280;14201;43.188;24.160;2023-09-19T02:46:04;99871.41;;;14.50;74.75
26531;BME280;14201;43.188;24.160;2023-09-19T02:48:30;99874.00;;;14.48;74.81
26531;BME280;14201;43.188;24.160;2023-09-19T02:50:57;99863.44;;;14.45;75.31
26531;BME280;14201;43.188;24.160;2023-09-19T02:53:22;99870.47;;;14.46;76.37
26531;BME280;14201;43.188;24.160;2023-09-19T02:55:49;99875.78;;;14.49;77.48
26531;BME280;14201;43.188;24.160;2023-09-19T02:58:15;99875.88;;;14.52;78.68
26531;BME280;14201;43.188;24.160;2023-09-19T03:00:40;99876.75;;;14.53;74.06
26531;BME280;14201;43.188;24.160;2023-09-19T03:03:07;99865.41;;;14.52;74.89
26531;BME280;14201;43.188;24.160;2023-09-19T03:05:33;99872.22;;;14.47;76.49
26531;BME280;14201;43.188;24.160;2023-09-19T03:07:59;99874.38;;;14.32;74.35
26531;BME280;14201;43.188;24.160;2023-09-19T03:10:27;99869.50;;;14.15;73.90
26531;BME280;14201;43.188;24.160;2023-09-19T03:12:54;99878.13;;;14.11;74.87
26531;BME280;14201;43.188;24.160;2023-09-19T03:15:19;99874.50;;;14.08;75.39
26531;BME280;14201;43.188;24.160;2023-09-19T03:17:46;99860.59;;;14.10;77.04
26531;BME280;14201;43.188;24.160;2023-09-19T03:20:12;99856.94;;;14.05;78.29
26531;BME280;14201;43.188;24.160;2023-09-19T03:22:39;99856.19;;;14.09;78.77
26531;BME280;14201;43.188;24.160;2023-09-19T03:25:07;99850.00;;;14.07;77.53
26531;BME280;14201;43.188;24.160;2023-09-19T03:27:35;99852.94;;;13.89;76.76
26531;BME280;14201;43.188;24.160;2023-09-19T03:30:01;99863.66;;;13.70;77.86
26531;BME280;14201;43.188;24.160;2023-09-19T03:32:30;99866.81;;;13.34;77.13
26531;BME280;14201;43.188;24.160;2023-09-19T03:34:58;99863.09;;;13.29;77.86
26531;BME280;14201;43.188;24.160;2023-09-19T03:37:24;99860.00;;;13.39;76.59
26531;BME280;14201;43.188;24.160;2023-09-19T03:39:49;99857.81;;;13.51;78.11
26531;BME280;14201;43.188;24.160;2023-09-19T03:42:15;99862.31;;;13.55;78.58
26531;BME280;14201;43.188;24.160;2023-09-19T03:44:40;99858.97;;;13.59;77.76
26531;BME280;14201;43.188;24.160;2023-09-19T03:47:05;99861.72;;;13.64;78.62
26531;BME280;14201;43.188;24.160;2023-09-19T03:49:32;99862.66;;;13.66;78.95
26531;BME280;14201;43.188;24.160;2023-09-19T03:51:57;99865.34;;;13.68;79.45
26531;BME280;14201;43.188;24.160;2023-09-19T03:54:22;99860.31;;;13.74;78.86
26531;BME280;14201;43.188;24.160;2023-09-19T03:56:48;99864.09;;;13.84;78.85
26531;BME280;14201;43.188;24.160;2023-09-19T03:59:13;99862.22;;;13.79;78.08
26531;BME280;14201;43.188;24.160;2023-09-19T04:01:39;99868.94;;;13.71;78.13
26531;BME280;14201;43.188;24.160;2023-09-19T04:04:06;99871.44;;;13.68;78.83
26531;BME280;14201;43.188;24.160;2023-09-19T04:06:34;99873.06;;;13.65;80.41
26531;BME280;14201;43.188;24.160;2023-09-19T04:09:00;99868.63;;;13.62;80.25
26531;BME280;14201;43.188;24.160;2023-09-19T04:11:26;99876.53;;;13.64;79.75
26531;BME280;14201;43.188;24.160;2023-09-19T04:13:52;99869.50;;;13.63;79.39
26531;BME280;14201;43.188;24.160;2023-09-19T04:16:17;99866.22;;;13.68;80.49
26531;BME280;14201;43.188;24.160;2023-09-19T04:18:43;99872.31;;;13.67;77.29
26531;BME280;14201;43.188;24.160;2023-09-19T04:21:08;99867.00;;;13.66;77.25
26531;BME280;14201;43.188;24.160;2023-09-19T04:23:34;99873.31;;;13.72;78.65
26531;BME280;14201;43.188;24.160;2023-09-19T04:25:59;99870.97;;;13.80;80.39
26531;BME280;14201;43.188;24.160;2023-09-19T04:28:25;99878.34;;;13.92;80.95
26531;BME280;14201;43.188;24.160;2023-09-19T04:30:52;99874.09;;;13.95;80.78
26531;BME280;14201;43.188;24.160;2023-09-19T04:33:18;99871.69;;;14.02;80.57
26531;BME280;14201;43.188;24.160;2023-09-19T04:35:43;99880.19;;;14.22;79.29
26531;BME280;14201;43.188;24.160;2023-09-19T04:38:09;99877.16;;;14.36;79.54
26531;BME280;14201;43.188;24.160;2023-09-19T04:40:34;99879.91;;;14.41;78.05
26531;BME280;14201;43.188;24.160;2023-09-19T04:43:00;99878.72;;;14.59;78.04
26531;BME280;14201;43.188;24.160;2023-09-19T04:45:26;99875.16;;;14.87;78.17
26531;BME280;14201;43.188;24.160;2023-09-19T04:47:52;99877.97;;;14.93;77.30
26531;BME280;14201;43.188;24.160;2023-09-19T04:50:17;99886.09;;;15.02;77.18
26531;BME280;14201;43.188;24.160;2023-09-19T04:52:43;99881.25;;;15.16;77.05
26531;BME280;14201;43.188;24.160;2023-09-19T04:55:13;99879.41;;;15.13;77.37
26531;BME280;14201;43.188;24.160;2023-09-19T04:57:48;99884.88;;;15.21;77.71
26531;BME280;14201;43.188;24.160;2023-09-19T05:00:15;99889.28;;;15.22;78.11
26531;BME280;14201;43.188;24.160;2023-09-19T05:02:42;99886.56;;;15.19;78.26
26531;BME280;14201;43.188;24.160;2023-09-19T05:05:07;99887.59;;;15.24;79.28
26531;BME280;14201;43.188;24.160;2023-09-19T05:07:33;99879.41;;;15.45;80.37
26531;BME280;14201;43.188;24.160;2023-09-19T05:09:59;99882.28;;;15.56;80.10
26531;BME280;14201;43.188;24.160;2023-09-19T05:12:25;99882.09;;;15.82;79.79
26531;BME280;14201;43.188;24.160;2023-09-19T05:14:51;99880.75;;;15.98;78.95
26531;BME280;14201;43.188;24.160;2023-09-19T05:17:16;99877.50;;;16.08;78.04
26531;BME280;14201;43.188;24.160;2023-09-19T05:19:42;99876.06;;;16.21;78.21
26531;BME280;14201;43.188;24.160;2023-09-19T05:22:08;99866.59;;;16.29;78.88
26531;BME280;14201;43.188;24.160;2023-09-19T05:24:34;99865.09;;;16.40;78.67
26531;BME280;14201;43.188;24.160;2023-09-19T05:26:59;99863.84;;;16.64;77.86
26531;BME280;14201;43.188;24.160;2023-09-19T05:29:25;99864.09;;;16.76;77.78
26531;BME280;14201;43.188;24.160;2023-09-19T05:31:51;99871.63;;;16.99;77.96
26531;BME280;14201;43.188;24.160;2023-09-19T05:34:18;99867.84;;;17.30;78.77
26531;BME280;14201;43.188;24.160;2023-09-19T05:36:44;99867.44;;;17.57;79.45
26531;BME280;14201;43.188;24.160;2023-09-19T05:39:10;99864.19;;;17.74;78.14
26531;BME280;14201;43.188;24.160;2023-09-19T05:41:36;99850.56;;;17.96;77.02
26531;BME280;14201;43.188;24.160;2023-09-19T05:44:03;99859.00;;;18.30;75.69
26531;BME280;14201;43.188;24.160;2023-09-19T05:46:28;99858.28;;;18.43;73.75
26531;BME280;14201;43.188;24.160;2023-09-19T05:48:55;99845.34;;;18.62;74.66
26531;BME280;14201;43.188;24.160;2023-09-19T05:51:24;99848.13;;;18.74;74.60
26531;BME280;14201;43.188;24.160;2023-09-19T05:53:50;99847.44;;;18.86;73.96
26531;BME280;14201;43.188;24.160;2023-09-19T05:56:16;99821.97;;;18.89;73.84
26531;BME280;14201;43.188;24.160;2023-09-19T05:58:44;99825.66;;;19.07;73.52
26531;BME280;14201;43.188;24.160;2023-09-19T06:01:10;99831.13;;;19.22;73.14
26531;BME280;14201;43.188;24.160;2023-09-19T06:03:35;99820.50;;;19.16;73.45
26531;BME280;14201;43.188;24.160;2023-09-19T06:06:02;99817.28;;;19.48;73.56
26531;BME280;14201;43.188;24.160;2023-09-19T06:08:27;99822.69;;;19.60;73.18
26531;BME280;14201;43.188;24.160;2023-09-19T06:10:54;99822.06;;;19.92;71.47
26531;BME280;14201;43.188;24.160;2023-09-19T06:13:19;99817.78;;;20.10;70.56
26531;BME280;14201;43.188;24.160;2023-09-19T06:15:45;99823.09;;;20.13;70.42
26531;BME280;14201;43.188;24.160;2023-09-19T06:18:12;99815.25;;;20.28;69.80
26531;BME280;14201;43.188;24.160;2023-09-19T06:20:46;99818.81;;;20.36;69.34
26531;BME280;14201;43.188;24.160;2023-09-19T06:23:13;99826.78;;;20.42;68.88
26531;BME280;14201;43.188;24.160;2023-09-19T06:25:38;99826.88;;;20.58;68.67
26531;BME280;14201;43.188;24.160;2023-09-19T06:28:04;99826.06;;;20.68;68.78
26531;BME280;14201;43.188;24.160;2023-09-19T06:30:31;99826.00;;;20.57;68.47
26531;BME280;14201;43.188;24.160;2023-09-19T06:32:58;99820.78;;;20.70;67.65
26531;BME280;14201;43.188;24.160;2023-09-19T06:35:24;99822.63;;;20.97;67.37
26531;BME280;14201;43.188;24.160;2023-09-19T06:37:51;99812.97;;;21.03;67.19
26531;BME280;14201;43.188;24.160;2023-09-19T06:40:18;99822.72;;;21.23;66.42
26531;BME280;14201;43.188;24.160;2023-09-19T06:42:46;99822.72;;;21.37;65.84
26531;BME280;14201;43.188;24.160;2023-09-19T06:45:13;99817.47;;;21.48;65.81
26531;BME280;14201;43.188;24.160;2023-09-19T06:47:47;99817.47;;;21.63;65.54
26531;BME280;14201;43.188;24.160;2023-09-19T06:50:22;99821.00;;;21.76;64.28
26531;BME280;14201;43.188;24.160;2023-09-19T06:52:52;99828.94;;;21.97;62.97
26531;BME280;14201;43.188;24.160;2023-09-19T06:55:20;99819.22;;;21.99;62.59
26531;BME280;14201;43.188;24.160;2023-09-19T06:57:49;99825.38;;;22.15;62.67
26531;BME280;14201;43.188;24.160;2023-09-19T07:00:15;99826.28;;;22.27;62.19
26531;BME280;14201;43.188;24.160;2023-09-19T07:02:42;99820.94;;;22.39;62.83
26531;BME280;14201;43.188;24.160;2023-09-19T07:05:08;99820.88;;;22.56;62.24
26531;BME280;14201;43.188;24.160;2023-09-19T07:07:34;99821.72;;;22.69;61.14
26531;BME280;14201;43.188;24.160;2023-09-19T07:10:01;99809.25;;;22.88;60.16
26531;BME280;14201;43.188;24.160;2023-09-19T07:12:27;99823.31;;;23.07;60.88
26531;BME280;14201;43.188;24.160;2023-09-19T07:14:52;99824.06;;;23.32;57.29
26531;BME280;14201;43.188;24.160;2023-09-19T07:17:18;99817.69;;;23.56;57.00
26531;BME280;14201;43.188;24.160;2023-09-19T07:19:45;99823.75;;;23.70;55.50
26531;BME280;14201;43.188;24.160;2023-09-19T07:22:10;99831.75;;;23.69;55.82
26531;BME280;14201;43.188;24.160;2023-09-19T07:24:36;99828.16;;;23.73;54.53
26531;BME280;14201;43.188;24.160;2023-09-19T07:27:02;99827.28;;;23.72;55.06
26531;BME280;14201;43.188;24.160;2023-09-19T07:29:28;99825.56;;;23.67;56.95
26531;BME280;14201;43.188;24.160;2023-09-19T07:31:53;99828.28;;;23.61;56.90
26531;BME280;14201;43.188;24.160;2023-09-19T07:34:19;99823.94;;;23.50;56.23
26531;BME280;14201;43.188;24.160;2023-09-19T07:36:47;99809.78;;;23.47;56.40
26531;BME280;14201;43.188;24.160;2023-09-19T07:39:13;99809.81;;;23.41;55.24
26531;BME280;14201;43.188;24.160;2023-09-19T07:41:39;99812.47;;;23.42;55.21
26531;BME280;14201;43.188;24.160;2023-09-19T07:44:04;99817.72;;;23.51;55.34
26531;BME280;14201;43.188;24.160;2023-09-19T07:46:30;99816.81;;;23.52;54.25
26531;BME280;14201;43.188;24.160;2023-09-19T07:48:57;99811.41;;;23.63;56.15
26531;BME280;14201;43.188;24.160;2023-09-19T07:51:23;99798.16;;;23.62;53.84
26531;BME280;14201;43.188;24.160;2023-09-19T07:53:48;99798.94;;;23.71;54.30
26531;BME280;14201;43.188;24.160;2023-09-19T07:56:14;99787.38;;;23.74;54.09
26531;BME280;14201;43.188;24.160;2023-09-19T07:58:40;99793.59;;;23.79;54.17
26531;BME280;14201;43.188;24.160;2023-09-19T08:01:10;99793.56;;;23.76;54.51
26531;BME280;14201;43.188;24.160;2023-09-19T08:03:37;99788.22;;;23.84;55.41
26531;BME280;14201;43.188;24.160;2023-09-19T08:06:09;99789.94;;;23.91;52.73
26531;BME280;14201;43.188;24.160;2023-09-19T08:08:35;99780.22;;;23.85;51.90
26531;BME280;14201;43.188;24.160;2023-09-19T08:11:03;99781.88;;;23.97;51.12
26531;BME280;14201;43.188;24.160;2023-09-19T08:13:35;99780.84;;;24.12;51.96
26531;BME280;14201;43.188;24.160;2023-09-19T08:16:03;99782.28;;;24.41;50.56
26531;BME280;14201;43.188;24.160;2023-09-19T08:18:29;99781.31;;;24.48;50.51
26531;BME280;14201;43.188;24.160;2023-09-19T08:20:55;99776.78;;;24.56;49.93
26531;BME280;14201;43.188;24.160;2023-09-19T08:23:24;99779.44;;;24.59;50.39
26531;BME280;14201;43.188;24.160;2023-09-19T08:25:49;99783.75;;;24.68;50.98
26531;BME280;14201;43.188;24.160;2023-09-19T08:28:15;99775.38;;;24.97;51.16
26531;BME280;14201;43.188;24.160;2023-09-19T08:30:45;99781.22;;;25.24;49.45
26531;BME280;14201;43.188;24.160;2023-09-19T08:33:11;99769.03;;;25.62;49.43
26531;BME280;14201;43.188;24.160;2023-09-19T08:35:37;99777.28;;;26.01;49.04
26531;BME280;14201;43.188;24.160;2023-09-19T08:38:05;99776.72;;;26.28;48.24
26531;BME280;14201;43.188;24.160;2023-09-19T08:40:32;99769.06;;;26.55;45.96
26531;BME280;14201;43.188;24.160;2023-09-19T08:42:59;99771.63;;;26.61;44.70
26531;BME280;14201;43.188;24.160;2023-09-19T08:45:26;99775.53;;;26.87;46.19
26531;BME280;14201;43.188;24.160;2023-09-19T08:48:08;99764.31;;;27.10;46.22
26531;BME280;14201;43.188;24.160;2023-09-19T08:50:47;99771.84;;;27.32;46.87
26531;BME280;14201;43.188;24.160;2023-09-19T08:53:21;99769.56;;;27.52;45.81
26531;BME280;14201;43.188;24.160;2023-09-19T08:55:50;99770.00;;;27.71;44.36
26531;BME280;14201;43.188;24.160;2023-09-19T08:58:19;99761.03;;;27.72;42.53
26531;BME280;14201;43.188;24.160;2023-09-19T09:00:48;99764.06;;;27.58;43.66
26531;BME280;14201;43.188;24.160;2023-09-19T09:03:16;99756.47;;;27.41;43.95
26531;BME280;14201;43.188;24.160;2023-09-19T09:05:45;99757.34;;;27.42;43.09
26531;BME280;14201;43.188;24.160;2023-09-19T09:08:13;99745.03;;;27.35;43.25
26531;BME280;14201;43.188;24.160;2023-09-19T09:10:39;99750.97;;;27.47;45.06
26531;BME280;14201;43.188;24.160;2023-09-19T09:13:06;99737.03;;;27.33;43.05
26531;BME280;14201;43.188;24.160;2023-09-19T09:15:35;99750.06;;;27.81;42.79
26531;BME280;14201;43.188;24.160;2023-09-19T09:18:02;99756.41;;;28.13;42.39
26531;BME280;14201;43.188;24.160;2023-09-19T09:20:28;99742.69;;;28.24;41.77
26531;BME280;14201;43.188;24.160;2023-09-19T09:22:56;99738.00;;;27.99;42.86
26531;BME280;14201;43.188;24.160;2023-09-19T09:28:19;99737.19;;;27.97;42.16
26531;BME280;14201;43.188;24.160;2023-09-19T09:30:46;99736.28;;;27.98;41.69
26531;BME280;14201;43.188;24.160;2023-09-19T09:33:14;99734.66;;;28.24;41.26
26531;BME280;14201;43.188;24.160;2023-09-19T09:36:13;99735.38;;;28.31;40.97
26531;BME280;14201;43.188;24.160;2023-09-19T09:38:43;99731.38;;;28.44;41.96
26531;BME280;14201;43.188;24.160;2023-09-19T09:41:10;99733.56;;;28.62;42.64
26531;BME280;14201;43.188;24.160;2023-09-19T09:43:40;99733.03;;;29.08;41.34
26531;BME280;14201;43.188;24.160;2023-09-19T09:46:11;99742.16;;;28.74;39.05
26531;BME280;14201;43.188;24.160;2023-09-19T09:48:55;99730.34;;;29.08;40.05
26531;BME280;14201;43.188;24.160;2023-09-19T09:51:40;99723.78;;;29.44;38.70
26531;BME280;14201;43.188;24.160;2023-09-19T09:54:15;99730.09;;;29.70;39.01
26531;BME280;14201;43.188;24.160;2023-09-19T09:56:58;99724.41;;;29.79;37.01
26531;BME280;14201;43.188;24.160;2023-09-19T09:59:50;99725.50;;;29.99;37.87
26531;BME280;14201;43.188;24.160;2023-09-19T10:02:18;99722.00;;;29.45;37.32
26531;BME280;14201;43.188;24.160;2023-09-19T10:04:51;99721.53;;;29.59;37.98
26531;BME280;14201;43.188;24.160;2023-09-19T10:07:31;99717.78;;;29.90;38.14
26531;BME280;14201;43.188;24.160;2023-09-19T10:10:33;99710.03;;;30.06;37.26
26531;BME280;14201;43.188;24.160;2023-09-19T10:13:06;99716.06;;;30.12;36.70
26531;BME280;14201;43.188;24.160;2023-09-19T10:15:33;99712.31;;;30.16;37.00
26531;BME280;14201;43.188;24.160;2023-09-19T10:18:01;99705.84;;;30.22;36.68
26531;BME280;14201;43.188;24.160;2023-09-19T10:20:30;99712.66;;;30.32;35.12
26531;BME280;14201;43.188;24.160;2023-09-19T10:23:08;99716.81;;;30.41;35.14
26531;BME280;14201;43.188;24.160;2023-09-19T10:25:41;99704.84;;;30.72;36.73
26531;BME280;14201;43.188;24.160;2023-09-19T10:28:09;99700.00;;;31.04;35.37
26531;BME280;14201;43.188;24.160;2023-09-19T10:30:49;99705.38;;;31.48;34.61
26531;BME280;14201;43.188;24.160;2023-09-19T10:33:22;99707.53;;;31.60;34.87
26531;BME280;14201;43.188;24.160;2023-09-19T10:35:51;99695.50;;;31.89;34.15
26531;BME280;14201;43.188;24.160;2023-09-19T10:38:24;99700.09;;;32.27;33.89
26531;BME280;14201;43.188;24.160;2023-09-19T10:40:56;99700.72;;;31.92;31.07
26531;BME280;14201;43.188;24.160;2023-09-19T10:43:28;99694.91;;;31.40;31.45
26531;BME280;14201;43.188;24.160;2023-09-19T10:46:00;99692.47;;;31.34;32.87
26531;BME280;14201;43.188;24.160;2023-09-19T10:48:26;99693.47;;;31.74;33.76
26531;BME280;14201;43.188;24.160;2023-09-19T10:51:20;99684.94;;;32.05;32.25
26531;BME280;14201;43.188;24.160;2023-09-19T10:54:01;99687.38;;;32.49;31.81
26531;BME280;14201;43.188;24.160;2023-09-19T10:56:32;99680.59;;;32.79;31.92
26531;BME280;14201;43.188;24.160;2023-09-19T10:59:07;99673.16;;;32.65;30.94
26531;BME280;14201;43.188;24.160;2023-09-19T11:01:55;99676.38;;;32.73;31.00
26531;BME280;14201;43.188;24.160;2023-09-19T11:04:30;99678.78;;;32.79;31.36
26531;BME280;14201;43.188;24.160;2023-09-19T11:07:09;99670.38;;;32.85;31.82
26531;BME280;14201;43.188;24.160;2023-09-19T11:09:46;99671.97;;;32.89;30.88
26531;BME280;14201;43.188;24.160;2023-09-19T11:14:50;99667.34;;;32.91;30.04
26531;BME280;14201;43.188;24.160;2023-09-19T11:30:36;99653.75;;;32.75;28.52
26531;BME280;14201;43.188;24.160;2023-09-19T11:33:18;99654.31;;;32.82;29.55
26531;BME280;14201;43.188;24.160;2023-09-19T11:36:03;99648.47;;;32.91;29.62
26531;BME280;14201;43.188;24.160;2023-09-19T11:43:48;99639.19;;;32.97;28.92
26531;BME280;14201;43.188;24.160;2023-09-19T11:46:16;99638.97;;;33.02;28.61
26531;BME280;14201;43.188;24.160;2023-09-19T11:48:48;99634.13;;;33.08;27.19
26531;BME280;14201;43.188;24.160;2023-09-19T11:51:25;99631.69;;;33.04;26.42
26531;BME280;14201;43.188;24.160;2023-09-19T11:53:55;99633.78;;;32.61;26.79
26531;BME280;14201;43.188;24.160;2023-09-19T11:56:23;99637.13;;;32.28;27.01
26531;BME280;14201;43.188;24.160;2023-09-19T11:58:51;99631.41;;;32.16;26.96
26531;BME280;14201;43.188;24.160;2023-09-19T12:01:27;99627.53;;;32.03;27.15
26531;BME280;14201;43.188;24.160;2023-09-19T12:03:56;99629.25;;;32.04;27.78
26531;BME280;14201;43.188;24.160;2023-09-19T12:06:24;99625.63;;;32.05;27.58
26531;BME280;14201;43.188;24.160;2023-09-19T12:08:51;99622.63;;;32.11;27.99
26531;BME280;14201;43.188;24.160;2023-09-19T12:11:19;99612.00;;;32.08;28.22
26531;BME280;14201;43.188;24.160;2023-09-19T12:13:47;99615.28;;;32.34;29.19
26531;BME280;14201;43.188;24.160;2023-09-19T12:16:17;99614.09;;;32.59;28.44
26531;BME280;14201;43.188;24.160;2023-09-19T12:18:47;99608.63;;;32.79;29.29
26531;BME280;14201;43.188;24.160;2023-09-19T12:21:31;99611.66;;;32.90;28.39
26531;BME280;14201;43.188;24.160;2023-09-19T12:26:39;99607.88;;;33.12;27.59
26531;BME280;14201;43.188;24.160;2023-09-19T12:29:14;99600.31;;;33.19;27.33
26531;BME280;14201;43.188;24.160;2023-09-19T12:31:54;99610.50;;;33.31;28.20
26531;BME280;14201;43.188;24.160;2023-09-19T12:34:26;99604.31;;;33.29;27.80
26531;BME280;14201;43.188;24.160;2023-09-19T12:37:14;99602.91;;;33.03;28.23
26531;BME280;14201;43.188;24.160;2023-09-19T12:39:52;99599.09;;;33.07;28.59
26531;BME280;14201;43.188;24.160;2023-09-19T12:42:25;99591.25;;;33.02;27.93
26531;BME280;14201;43.188;24.160;2023-09-19T12:44:58;99588.63;;;32.09;28.68
26531;BME280;14201;43.188;24.160;2023-09-19T12:47:27;99585.16;;;31.86;28.64
26531;BME280;14201;43.188;24.160;2023-09-19T12:50:14;99587.81;;;31.67;29.14
26531;BME280;14201;43.188;24.160;2023-09-19T12:52:47;99583.28;;;30.64;30.58
26531;BME280;14201;43.188;24.160;2023-09-19T12:55:30;99585.56;;;30.29;30.73
26531;BME280;14201;43.188;24.160;2023-09-19T12:58:13;99580.66;;;30.62;30.88
26531;BME280;14201;43.188;24.160;2023-09-19T13:00:45;99574.00;;;30.71;30.93
26531;BME280;14201;43.188;24.160;2023-09-19T13:03:18;99577.69;;;30.90;30.72
26531;BME280;14201;43.188;24.160;2023-09-19T13:05:55;99582.38;;;30.63;31.51
26531;BME280;14201;43.188;24.160;2023-09-19T13:08:29;99567.19;;;30.16;32.05
26531;BME280;14201;43.188;24.160;2023-09-19T13:11:06;99573.59;;;29.90;32.65
26531;BME280;14201;43.188;24.160;2023-09-19T13:14:19;99566.50;;;29.64;32.88
26531;BME280;14201;43.188;24.160;2023-09-19T13:16:26;99570.72;;;29.71;33.64
26531;BME280;14201;43.188;24.160;2023-09-19T13:18:53;99577.47;;;29.58;33.45
26531;BME280;14201;43.188;24.160;2023-09-19T13:21:32;99577.75;;;29.50;33.26
26531;BME280;14201;43.188;24.160;2023-09-19T13:24:20;99564.59;;;29.42;33.72
26531;BME280;14201;43.188;24.160;2023-09-19T13:26:46;99573.97;;;29.04;34.10
26531;BME280;14201;43.188;24.160;2023-09-19T13:29:12;99570.94;;;28.88;34.77
26531;BME280;14201;43.188;24.160;2023-09-19T13:31:37;99561.50;;;29.03;35.43
26531;BME280;14201;43.188;24.160;2023-09-19T13:34:07;99560.97;;;28.93;35.58
26531;BME280;14201;43.188;24.160;2023-09-19T13:36:33;99562.38;;;29.03;35.55
26531;BME280;14201;43.188;24.160;2023-09-19T13:38:59;99567.19;;;28.94;35.16
26531;BME280;14201;43.188;24.160;2023-09-19T13:41:25;99563.94;;;28.84;35.34
26531;BME280;14201;43.188;24.160;2023-09-19T13:43:51;99564.47;;;28.69;35.67